Flight Track Log - Related Links

Times and Time Zones

All times are in EDT time to prevent confusion due to time zone crossing. See the SKW4540 flight status page for this flight to view local times or setup timezone preferences in your user account.

Time Position Orientation Groundspeed Altitude Reporting Facility
EDT Latitude Longitude Course Direction KTS MPH feet Rate Location/Type
Sat 01:54:56 PM 47.0189 -114.2939 301° West 239 275 9,100  Level Salt Lake Center
Sat 01:55:00 PM 46.6684 -113.9958 180° South  Level Estimated
Sat 01:55:58 PM 46.9717 -114.3522 220° Southwest 254 292 10,900  Level Salt Lake Center
Sat 01:56:00 PM 46.5923 -114.0521 207° Southwest  Level FlightAware Approximate
Sat 01:57:00 PM 46.5098 -114.0196 180° South  Level Estimated
Sat 01:57:00 PM 46.8886 -114.3389 174° South 284 327 12,600  Level Salt Lake Center
Sat 01:58:00 PM 46.4291 -114.0603 199° South  Level FlightAware Approximate
Sat 01:58:02 PM 46.8047 -114.3283 175° South 303 349 14,500  Level Salt Lake Center
Sat 01:59:00 PM 46.3469 -114.0268 180° South  Level Estimated
Sat 01:59:04 PM 46.7136 -114.3147 174° South 307 353 16,600  Level Salt Lake Center
Sat 02:00:06 PM 46.6269 -114.3031 175° South 313 360 18,300 1,488 Climbing Salt Lake Center
Sat 02:01:09 PM 46.5364 -114.2908 175° South 327 376 19,700 1,258 Climbing Salt Lake Center
Sat 02:02:10 PM 46.4547 -114.2792 174° South 328 377 20,900 1,415 Climbing Salt Lake Center
Sat 02:03:12 PM 46.3411 -114.2639 175° South 340 391 22,600 1,355 Climbing Salt Lake Center
Sat 02:04:14 PM 46.2461 -114.2489 174° South 343 395 23,700 1,016 Climbing Salt Lake Center
Sat 02:05:16 PM 46.1478 -114.2369 175° South 356 410 24,700 968 Climbing Salt Lake Center
Sat 02:06:18 PM 46.0483 -114.2214 174° South 360 414 25,700 919 Climbing Salt Lake Center
Sat 02:07:20 PM 45.9481 -114.2086 175° South 361 415 26,600 823 Climbing Salt Lake Center
Sat 02:08:22 PM 45.8469 -114.1953 175° South 364 419 27,400 823 Climbing Salt Lake Center
Sat 02:09:24 PM 45.7228 -114.1794 175° South 371 427 28,300 677 Climbing Salt Lake Center
Sat 02:10:26 PM 45.6189 -114.1642 174° South 375 432 28,800 484 Climbing Salt Lake Center
Sat 02:11:28 PM 45.5142 -114.1497 174° South 380 437 29,300 532 Climbing Salt Lake Center
Sat 02:12:30 PM 45.3933 -114.1342 175° South 388 447 29,900 339 Climbing Salt Lake Center
Sat 02:13:32 PM 45.2894 -114.1203 175° South 392 451 30,000 48 Climbing Salt Lake Center
Sat 02:14:34 PM 45.1658 -114.1036 175° South 398 458 30,000  Level Salt Lake Center
Sat 02:15:36 PM 45.0619 -114.0897 175° South 395 455 30,000  Level Salt Lake Center
Sat 02:16:41 PM 44.9467 -114.0317 160° South 401 461 30,000  Level Salt Lake Center
Sat 02:17:40 PM 44.8500 -113.9672 155° Southeast 403 464 30,000 347 Level Salt Lake Center
Sat 02:18:42 PM 44.7411 -113.8911 154° Southeast 397 457 30,700 484 Climbing Salt Lake Center
Sat 02:19:44 PM 44.6467 -113.8264 154° Southeast 395 455 31,000 145 Climbing Salt Lake Center
Sat 02:20:46 PM 44.5356 -113.7494 154° Southeast 396 456 31,000  Level Salt Lake Center
Sat 02:21:48 PM 44.4364 -113.6831 154° Southeast 403 464 31,000  Level Salt Lake Center
Sat 02:22:50 PM 44.3386 -113.6172 154° Southeast 406 467 31,000  Level Salt Lake Center
Sat 02:23:52 PM 44.2244 -113.5389 154° Southeast 408 470 31,000  Level Salt Lake Center
Sat 02:24:54 PM 44.1247 -113.4728 155° Southeast 410 472 31,000  Level Salt Lake Center
Sat 02:25:56 PM 44.0103 -113.3961 154° Southeast 409 471 31,000  Level Salt Lake Center
Sat 02:26:58 PM 43.9133 -113.3317 154° Southeast 406 467 31,000  Level Salt Lake Center
Sat 02:28:00 PM 43.8003 -113.2564 154° Southeast 404 465 31,000  Level Salt Lake Center
Sat 02:29:02 PM 43.7039 -113.1933 155° Southeast 402 463 31,000  Level Salt Lake Center
Sat 02:30:03 PM 43.5922 -113.1211 155° Southeast 399 459 31,000  Level Salt Lake Center
Sat 02:31:05 PM 43.4969 -113.0564 154° Southeast 399 459 31,000  Level Salt Lake Center
Sat 02:32:07 PM 43.3853 -112.9831 154° Southeast 398 458 31,000  Level Salt Lake Center
Sat 02:33:09 PM 43.2903 -112.9217 155° Southeast 396 456 31,000  Level Salt Lake Center
Sat 02:34:11 PM 43.1803 -112.8522 155° Southeast 391 450 31,000  Level Salt Lake Center
Sat 02:35:13 PM 43.0844 -112.7889 154° Southeast 396 456 31,000  Level Salt Lake Center
Sat 02:36:15 PM 42.9894 -112.7283 155° Southeast 395 455 31,000  Level Salt Lake Center
Sat 02:37:16 PM 42.8783 -112.6575 155° Southeast 395 455 31,000  Level Salt Lake Center
Sat 02:38:18 PM 42.7800 -112.6242 166° South 381 438 31,000 -484 Level Salt Lake Center
Sat 02:39:20 PM 42.6656 -112.5908 168° South 387 445 30,000 -484 Descending Salt Lake Center
Sat 02:40:22 PM 42.5603 -112.5592 168° South 389 448 30,000  Level Salt Lake Center
Sat 02:41:24 PM 42.4547 -112.5283 168° South 389 448 30,000  Level Salt Lake Center
Sat 02:42:25 PM 42.3489 -112.4956 167° South 390 449 30,000  Level Salt Lake Center
Sat 02:43:27 PM 42.2439 -112.4633 167° South 389 448 30,000  Level Salt Lake Center
Sat 02:44:29 PM 42.1167 -112.4556 177° South 383 441 30,000 -1,210 Level Salt Lake Center
Sat 02:45:31 PM 42.0108 -112.4628 183° South 381 438 27,500 -2,710 Descending Salt Lake Center
Sat 02:46:33 PM 41.9058 -112.4681 182° South 379 436 24,400 -2,878 Descending Salt Lake Center
Sat 02:47:34 PM 41.8031 -112.4750 183° South 375 432 21,600 -2,634 Descending Salt Lake Center
Sat 02:48:36 PM 41.7036 -112.4803 182° South 363 418 19,000 -2,435 Descending Salt Lake Center
Sat 02:49:52 PM 41.5750 -112.4828 181° South 347 399 16,000 -1,513 Descending Salt Lake Center
Sat 02:50:35 PM 41.5164 -112.4683 170° South 321 369 16,000 -288 Level Salt Lake Center
Sat 02:51:36 PM 41.4503 -112.3931 140° Southeast 316 364 15,500 -793 Descending Salt Lake Center
Sat 02:52:36 PM 41.3875 -112.3000 132° Southeast 311 358 14,400 -1,041 Descending Salt Lake Center
Sat 02:53:37 PM 41.3306 -112.2167 132° Southeast 305 351 13,400 -885 Descending Salt Lake Center
Sat 02:54:38 PM 41.2761 -112.1353 132° Southeast 299 344 12,600 -916 Descending Salt Lake Center
Sat 02:55:48 PM 41.2147 -112.0531 135° Southeast 304 350 11,400 -983 Descending Salt Lake Center
Sat 02:56:34 PM 41.1497 -112.0158 157° South 294 338 10,700 -1,189 Descending Salt Lake Center
Sat 02:57:34 PM 41.0706 -112.0086 176° South 288 331 9,300 -1,091 Descending Salt Lake Center
Sat 02:58:35 PM 41.0003 -112.0014 176° South 244 281 8,500 -1,131 Descending Salt Lake Center
Sat 02:59:36 PM 40.9361 -111.9919 174° South 219 252 7,000 -1,377 Descending Salt Lake Center
Sat 03:00:37 PM 40.8900 -111.9992 187° South 166 191 5,700 -984 Descending Salt Lake Center
Sat 03:01:38 PM 40.8483 -112.0050 186° South 148 170 5,000 -629 Descending Salt Lake Center
Sat 03:03:00 PM 40.7958 -111.9978 174° South 140 161 4,200 -585 Descending Salt Lake Center

Login

Don't have an account? Register now (free) for customized features, flight alerts, and more!